Portada
METAR-TAF:

METAR-TAF

Aeropuertos :

Almería, España

Aeropuerto de Almería

latitud: 36-51N, longitud: 002-23W, altitud: 15 m

Observación

El informe se hizo hace 10 minutos, a las 22:30 UTC
Viento 10 kt del noroeste
Temperatura 24°C
Humedad 78%
Presión 1015 hPa
Visibilidad 10 km o más
sin nubes por debajo de 1500 m y sin presencia de cumulonimbus.

METAR: LEAM 222230Z AUTO 32010KT CAVOK 24/20 Q1015

Hora: 00:40 (22:40 UTC)

Pronóstico

El informe se hizo hace 2 horas y 40 minutos, a las 20:00 UTC
Pronóstico válido del 22 a las 21 UTC al 23 a las 21 UTC
Viento 5 kt del sur-suroeste
Visibilidad 10 km o más
sin nubes por debajo de 1500 m y sin presencia de cumulonimbus.

TAF: LEAM 222000Z 2221/2321 20005KT CAVOK TX28/2313Z TN22/2302Z

Observaciones y pronósticos meteorológicos de más de 4000 aeropuertos (mensajes METAR y TAF).

Los puntos amarillos y rojos representan las estaciones disponibles.

Ponga el ratón en el punto deseado para ver el nombre de la estación.

Haga clic para ver las observaciones y los pronósticos meteorológicos.

Para cambiar el mapa : haga clic en los botones verdes con una cruz de color negro para hacer un zoom, en el botón verde con un guión para alejar o en las flechas verdes para mapas adyacentes.


METAR-TAF: